createdAt,value
2018-10-02T00:02:52.934Z,8.30
2018-10-02T00:07:56.456Z,11.60
2018-10-02T00:13:05.463Z,8.40
2018-10-02T00:18:09.303Z,11.70
2018-10-02T00:23:12.934Z,8.33
2018-10-02T00:28:16.441Z,9.73
2018-10-02T00:33:19.938Z,12.23
2018-10-02T00:38:23.389Z,9.70
2018-10-02T00:43:26.752Z,11.50
2018-10-02T00:48:30.166Z,9.53
2018-10-02T00:53:33.620Z,7.27
2018-10-02T00:58:37.010Z,8.93
2018-10-02T01:03:40.538Z,10.20
2018-10-02T01:08:44.100Z,8.73
2018-10-02T01:13:47.562Z,10.77
2018-10-02T01:18:51.040Z,11.73
2018-10-02T01:23:54.894Z,9.23
2018-10-02T01:28:58.535Z,10.20
2018-10-02T01:34:02.151Z,10.23
2018-10-02T01:39:06.824Z,12.57
2018-10-02T01:44:10.320Z,6.67
2018-10-02T01:49:13.817Z,10.90
2018-10-02T01:54:18.064Z,8.67
2018-10-02T01:59:21.675Z,10.10
2018-10-02T02:04:25.290Z,14.00
2018-10-02T02:09:28.812Z,10.80
2018-10-02T02:14:32.151Z,8.20
2018-10-02T02:19:35.525Z,9.63
2018-10-02T02:24:38.950Z,13.23
2018-10-02T02:29:42.422Z,8.80
2018-10-02T02:34:50.382Z,7.97
2018-10-02T02:39:54.077Z,10.83
2018-10-02T02:44:57.487Z,12.43
2018-10-02T02:50:10.909Z,7.90
2018-10-02T02:55:14.583Z,11.50
2018-10-02T03:00:18.117Z,10.27
2018-10-02T03:05:21.483Z,8.10
2018-10-02T03:10:24.891Z,13.27
2018-10-02T03:15:28.604Z,12.40
2018-10-02T03:20:31.986Z,7.83
2018-10-02T03:25:35.386Z,9.97
2018-10-02T03:30:38.777Z,8.43
2018-10-02T03:35:42.209Z,13.77
2018-10-02T03:40:45.628Z,15.03
2018-10-02T03:45:49.155Z,9.87
2018-10-02T03:50:52.677Z,10.87
2018-10-02T03:55:56.118Z,18.17
2018-10-02T04:00:59.505Z,8.37
2018-10-02T04:06:02.953Z,8.87
2018-10-02T04:11:06.773Z,16.40
2018-10-02T04:16:10.138Z,11.63
2018-10-02T04:21:13.484Z,12.20
2018-10-02T04:26:16.760Z,11.60
2018-10-02T04:31:20.093Z,7.20
2018-10-02T04:36:23.511Z,11.40
2018-10-02T04:41:26.925Z,13.53
2018-10-02T04:46:30.336Z,13.90
2018-10-02T04:51:34.211Z,11.40
2018-10-02T04:56:37.830Z,10.40
2018-10-02T05:01:41.153Z,12.00
2018-10-02T05:06:44.705Z,13.37
2018-10-02T05:11:48.180Z,11.33
2018-10-02T05:16:51.702Z,12.90
2018-10-02T05:21:55.127Z,9.63
2018-10-02T05:26:58.509Z,10.97
2018-10-02T05:32:02.807Z,11.37
2018-10-02T05:37:06.266Z,14.33
2018-10-02T05:42:10.048Z,11.67
2018-10-02T05:47:13.439Z,14.10
2018-10-02T05:52:18.140Z,13.77
2018-10-02T05:57:21.900Z,10.57
2018-10-02T06:02:28.426Z,11.87
2018-10-02T06:07:32.678Z,18.13
2018-10-02T06:12:36.044Z,11.33
2018-10-02T06:17:39.420Z,14.87
2018-10-02T06:22:43.059Z,10.97
2018-10-02T06:27:46.533Z,16.67
2018-10-02T06:32:50.291Z,11.83
2018-10-02T06:37:53.657Z,16.53
2018-10-02T06:42:57.148Z,10.37
2018-10-02T06:48:00.722Z,8.10
2018-10-02T06:53:04.639Z,15.40
2018-10-02T06:58:07.975Z,12.10
2018-10-02T07:03:11.440Z,13.17
2018-10-02T07:08:14.831Z,11.63
2018-10-02T07:13:18.384Z,12.60
2018-10-02T07:18:21.780Z,17.30
2018-10-02T07:23:25.164Z,11.10
2018-10-02T07:28:28.580Z,11.53
2018-10-02T07:33:32.674Z,10.43
2018-10-02T08:49:16.886Z,11.77
2018-10-02T08:54:20.277Z,12.47
2018-10-02T11:52:01.480Z,17.35
2018-10-02T11:57:04.893Z,17.47
2018-10-02T12:02:08.448Z,15.87
2018-10-02T12:12:14.646Z,15.65
2018-10-02T12:17:18.056Z,13.50
2018-10-02T12:22:21.598Z,13.40
2018-10-02T12:32:27.889Z,13.97
2018-10-02T12:42:35.999Z,13.50
2018-10-02T12:47:40.692Z,15.33
2018-10-02T12:52:45.664Z,15.13
2018-10-02T12:57:50.477Z,16.57
2018-10-02T13:02:54.881Z,15.47
2018-10-02T13:07:59.376Z,15.27
2018-10-02T13:13:03.634Z,16.37
2018-10-02T13:18:08.636Z,18.03
2018-10-02T13:23:14.095Z,20.97
2018-10-02T13:28:18.503Z,21.60
2018-10-02T13:33:23.775Z,20.23
2018-10-02T13:38:28.408Z,21.83
2018-10-02T13:43:32.484Z,21.07
2018-10-02T13:48:36.639Z,23.27
2018-10-02T13:53:40.035Z,22.00
2018-10-02T13:58:43.504Z,22.60
2018-10-02T14:03:47.068Z,24.93
2018-10-02T14:08:50.535Z,22.97
2018-10-02T14:13:54.004Z,21.67
2018-10-02T14:18:57.501Z,20.63
2018-10-02T14:24:01.091Z,16.30
2018-10-02T14:29:04.500Z,13.20
2018-10-02T14:34:07.847Z,13.57
2018-10-02T14:39:11.782Z,13.20
2018-10-02T14:44:15.233Z,13.97
2018-10-02T14:49:18.723Z,13.07
2018-10-02T14:54:22.306Z,13.50
2018-10-02T15:04:40.114Z,19.73
2018-10-02T15:09:43.624Z,13.83
2018-10-02T15:14:47.074Z,11.50
2018-10-02T15:19:50.503Z,15.80
2018-10-02T15:24:54.937Z,22.60
2018-10-02T15:29:59.652Z,18.07
2018-10-02T15:35:04.314Z,25.23
2018-10-02T15:40:09.307Z,23.90
2018-10-02T15:45:14.686Z,25.77
2018-10-02T15:50:19.389Z,31.23
2018-10-02T15:55:23.830Z,28.30
2018-10-02T16:00:28.311Z,31.67
2018-10-02T16:05:32.885Z,26.73
2018-10-02T16:10:37.630Z,35.87
2018-10-02T16:15:44.166Z,37.70
2018-10-02T16:20:51.558Z,24.60
2018-10-02T16:25:55.874Z,35.47
2018-10-02T16:30:59.987Z,33.90
2018-10-02T16:36:03.999Z,36.70
2018-10-02T16:41:07.666Z,29.80
2018-10-02T16:46:12.004Z,35.03
2018-10-02T16:51:15.638Z,29.60
2018-10-02T16:56:19.837Z,23.50
2018-10-02T17:01:24.055Z,29.13
2018-10-02T17:06:28.505Z,30.53
2018-10-02T17:11:32.911Z,22.43
2018-10-02T17:16:37.819Z,29.27
2018-10-02T17:21:41.890Z,31.73
2018-10-02T17:26:46.502Z,23.17
2018-10-02T17:31:49.854Z,18.63
2018-10-02T17:36:53.353Z,17.47
2018-10-02T17:41:57.108Z,24.07
2018-10-02T17:47:00.690Z,28.70
2018-10-02T17:52:04.196Z,22.80
2018-10-02T17:57:07.808Z,23.53
2018-10-02T18:02:11.253Z,19.80
2018-10-02T18:07:14.708Z,21.07
2018-10-02T18:12:18.397Z,30.17
2018-10-02T18:17:21.855Z,26.97
2018-10-02T18:22:25.681Z,20.70
2018-10-02T18:27:29.558Z,24.70
2018-10-02T18:32:33.061Z,21.77
2018-10-02T18:37:36.555Z,20.13
2018-10-02T18:42:40.056Z,19.73
2018-10-02T18:47:43.518Z,24.73
2018-10-02T18:52:46.988Z,23.53
2018-10-02T18:57:50.503Z,18.60
2018-10-02T19:02:54.199Z,23.37
2018-10-02T19:07:57.771Z,15.40
2018-10-02T19:13:01.317Z,19.53
2018-10-02T19:18:04.817Z,19.10
2018-10-02T19:23:08.463Z,23.37
2018-10-02T19:28:11.984Z,20.70
2018-10-02T19:33:15.358Z,17.50
2018-10-02T19:38:24.316Z,20.87
2018-10-02T19:43:27.937Z,17.13
2018-10-02T19:48:31.453Z,16.13
2018-10-02T19:53:35.086Z,22.03
2018-10-02T19:58:38.739Z,24.40
2018-10-02T20:03:42.223Z,25.90
2018-10-02T20:08:45.667Z,25.97
2018-10-02T20:13:49.223Z,25.47
2018-10-02T20:18:52.547Z,26.90
2018-10-02T20:23:56.075Z,22.67
2018-10-02T20:29:00.095Z,34.37
2018-10-02T20:34:03.509Z,22.20
2018-10-02T20:39:09.191Z,25.27
2018-10-02T20:44:12.661Z,26.13
2018-10-02T20:49:16.380Z,25.57
2018-10-02T20:54:19.813Z,26.00
2018-10-02T20:59:23.510Z,25.03
2018-10-02T21:04:27.180Z,29.13
2018-10-02T21:09:30.541Z,23.23
2018-10-02T21:14:33.929Z,25.30
2018-10-02T21:19:37.404Z,21.20
2018-10-02T21:24:41.169Z,24.50
2018-10-02T21:29:45.121Z,21.57
2018-10-02T21:34:48.539Z,25.60
2018-10-02T21:39:52.033Z,18.73
2018-10-02T21:44:55.728Z,19.20
2018-10-02T21:49:59.430Z,21.73
2018-10-02T21:55:03.366Z,16.93
2018-10-02T22:00:08.431Z,19.60
2018-10-02T22:05:11.992Z,16.20
2018-10-02T22:10:15.444Z,19.93
2018-10-02T22:15:19.087Z,24.23
2018-10-02T22:20:22.912Z,19.77
2018-10-02T22:25:32.008Z,24.80
2018-10-02T22:30:35.467Z,19.87
2018-10-02T22:35:40.070Z,24.33
2018-10-02T22:40:43.742Z,24.07
2018-10-02T22:45:48.609Z,18.67
2018-10-02T22:50:52.172Z,23.37
2018-10-02T22:55:55.767Z,24.63
2018-10-02T23:00:59.233Z,23.33
2018-10-02T23:06:02.631Z,22.57
2018-10-02T23:11:06.235Z,25.40
2018-10-02T23:16:09.800Z,25.10
2018-10-02T23:21:13.223Z,14.63
2018-10-02T23:26:16.546Z,18.17
2018-10-02T23:31:19.984Z,24.17
2018-10-02T23:36:23.416Z,24.80
2018-10-02T23:41:26.834Z,22.63
2018-10-02T23:46:30.326Z,18.07
2018-10-02T23:51:33.918Z,20.17
2018-10-02T23:56:37.315Z,22.90
